My Meet Scores
Avery Shea, American Gymnastics Training Center - MyMeetScores.com
Top100 | Top Teams | Upcoming Meets | Completed Meets | Latest | Add Scores | Help| Support | Bookmark and Share

Avery Shea, American Gymnastics Training Center
Personal Bests
LevelVault BarsBeamFloorAA
XG8.8509.250 9.1009.00035.850
XS9.4259.450 9.5009.40037.100
Meet Scores
Date Meet Team Session Level Division Vault Bars Beam Floor AA
2020-02-08 Mardi Gras Invitational American Gymnastics Training Center B09 XG Division 2 8.500 10T 9.250 9T 9.100 8 9.000 12T 35.850 10
2020-01-24 American Invitational 2020 American Gymnastics Training Center 4 XG JR 8.850 6T 8.700 2 9.000 4 8.900 7 35.450 4
2020-01-10 Little Boston Invitational American Gymnastics Training Center A05 XG JR 8.050 13 9.050 8T 8.800 4T 8.575 10T 34.475 10
2019-05-04 2019 CT XCEL Silver State Championship American Gymnastics Training Center 1 XS Sr A 9.325 3 9.350 3 9.125 4 9.025 5 36.825 3
2019-04-06 Shoreline Twister Invitational American Gymnastics Training Center 2 XS Middle 9.050 4T 9.400 2 9.250 4T 8.500 18 36.200 6T
2019-02-16 Chelsea Piers Winter Challenge American Gymnastics Training Center F2 XS Older 9.400 5T 9.300 6T 9.250 6* 9.150 8 37.100 4T
2019-01-25 Kinetic Kids Invitational 2019 American Gymnastics Training Center 3 XS Jr D 8.750 6 9.350 3 8.925 7 8.900 7 35.925 3
2019-01-18 22nd Annual Star Struck Invitational American Gymnastics Training Center 6D XS Sr B 9.100 4 9.000 4 9.500 1 9.000 9 36.600 2
2018-12-08 American Gymnastics Invitational American Gymnastics Training Center 6 XS Junior 9.150 3 9.425 2 9.250 3 9.200 3 37.025 2
2018-11-17 2018 Connecticut Judge's Cup American Gymnastics Training Center 4 XS 11 yrs. 9.000 14T 9.250 12T 9.200 14T 9.150 3T 36.600 8
2018-11-02 Muriel Grossfeld Invitational American Gymnastics Training Center 5 XS Sr A 8.750 13 8.750 7T 9.175 2 9.050 3 35.725 5
2018-05-05 2018 CT XCEL Silver State Championships American Gymnastics Training Center 2 XS Jr D 8.900 6T 9.075 4T 9.175 4 9.225 6 36.375 6
2018-02-16 Chelsea Piers Winter Challenge American Gymnastics Training Center F-2 XS JR A 9.425 4 9.125 11 9.100 6T 9.100 13T 36.750 9
2018-02-09 Team Challenge 2018 American Gymnastics Training Center 04B XS Jr B 8.900 7T 8.950 9 9.450 3 9.050 6 36.350 5
2018-01-26 2018 American Invitational American Gymnastics Training Center 3B XS Middle 9.275 2 8.800 13 9.350 8 8.650 14 36.075 9
2018-01-19 Beauty And The Beast Invitational American Gymnastics Training Center 14 XS C 9.000 5T 9.150 11 8.925 5 9.150 10 36.225 6
2017-05-06 2017 Connecticut XS State Championships American Gymnastics Training Center 2 XS Ch F 9.150 2T 9.025 9 8.825 8 9.400 3 36.400 5
2017-03-02 2017 Holiday Costume Cup American Gymnastics Training Center 4 XS Younger 9.100 4T 9.450 3 9.200 6 9.100 7T 36.850 5T
2017-02-10 Team Challenge 2017 American Gymnastics Training Center 06B XS Child 9.150 4 9.000 10T 8.550 11 8.800 6T 35.500 9
2017-01-27 24th Annual American Invitational American Gymnastics Training Center 2A XS Child 9.150 1 8.200 17T 8.650 15 8.950 7 34.950 9
2017-01-13 20th Annual Star Struck Invitational American Gymnastics Training Center 2D XS Jr B 8.700 8T 8.300 14T 8.700 8 8.600 15 34.300 14
Get your scores on
a t-shirt, pin, or hoodie

www.lazysuits.com